sensor_id;sensor_type;location;lat;lon;timestamp;temperature;humidity
10294;DHT22;5192;50.328;7.610;2022-09-01T00:02:28;16.00;99.90
10294;DHT22;5192;50.328;7.610;2022-09-01T00:04:56;16.10;99.90
10294;DHT22;5192;50.328;7.610;2022-09-01T00:07:25;16.10;99.90
10294;DHT22;5192;50.328;7.610;2022-09-01T00:09:53;16.00;99.90
10294;DHT22;5192;50.328;7.610;2022-09-01T00:12:20;15.90;99.90
10294;DHT22;5192;50.328;7.610;2022-09-01T00:14:48;15.90;99.90
10294;DHT22;5192;50.328;7.610;2022-09-01T00:17:15;15.80;99.90
10294;DHT22;5192;50.328;7.610;2022-09-01T00:19:42;15.80;99.90
10294;DHT22;5192;50.328;7.610;2022-09-01T00:22:11;15.70;99.90
10294;DHT22;5192;50.328;7.610;2022-09-01T00:24:39;15.60;99.90
10294;DHT22;5192;50.328;7.610;2022-09-01T00:27:06;15.60;99.90
10294;DHT22;5192;50.328;7.610;2022-09-01T00:29:32;15.60;99.90
10294;DHT22;5192;50.328;7.610;2022-09-01T00:31:58;15.60;99.90
10294;DHT22;5192;50.328;7.610;2022-09-01T00:34:25;15.60;99.90
10294;DHT22;5192;50.328;7.610;2022-09-01T00:36:51;15.60;99.90
10294;DHT22;5192;50.328;7.610;2022-09-01T00:39:18;15.60;99.90
10294;DHT22;5192;50.328;7.610;2022-09-01T00:41:46;15.70;99.90
10294;DHT22;5192;50.328;7.610;2022-09-01T00:44:16;15.60;99.90
10294;DHT22;5192;50.328;7.610;2022-09-01T00:46:46;15.60;99.90
10294;DHT22;5192;50.328;7.610;2022-09-01T00:51:54;15.60;99.90
10294;DHT22;5192;50.328;7.610;2022-09-01T00:54:28;15.60;99.90
10294;DHT22;5192;50.328;7.610;2022-09-01T00:56:57;15.50;99.90
10294;DHT22;5192;50.328;7.610;2022-09-01T00:59:24;15.40;99.90
10294;DHT22;5192;50.328;7.610;2022-09-01T01:01:53;15.40;99.90
10294;DHT22;5192;50.328;7.610;2022-09-01T01:04:21;15.30;99.90
10294;DHT22;5192;50.328;7.610;2022-09-01T01:06:50;15.30;99.90
10294;DHT22;5192;50.328;7.610;2022-09-01T01:09:25;15.20;99.90
10294;DHT22;5192;50.328;7.610;2022-09-01T01:11:52;15.20;99.90
10294;DHT22;5192;50.328;7.610;2022-09-01T01:14:20;15.20;99.90
10294;DHT22;5192;50.328;7.610;2022-09-01T01:16:47;15.10;99.90
10294;DHT22;5192;50.328;7.610;2022-09-01T01:19:41;15.10;99.90
10294;DHT22;5192;50.328;7.610;2022-09-01T01:25:56;14.90;99.90
10294;DHT22;5192;50.328;7.610;2022-09-01T01:28:42;14.80;99.90
10294;DHT22;5192;50.328;7.610;2022-09-01T01:31:17;14.70;99.90
10294;DHT22;5192;50.328;7.610;2022-09-01T01:34:03;14.60;99.90
10294;DHT22;5192;50.328;7.610;2022-09-01T01:36:36;14.50;99.90
10294;DHT22;5192;50.328;7.610;2022-09-01T01:39:11;14.40;99.90
10294;DHT22;5192;50.328;7.610;2022-09-01T01:41:39;14.40;99.90
10294;DHT22;5192;50.328;7.610;2022-09-01T01:44:07;14.30;99.90
10294;DHT22;5192;50.328;7.610;2022-09-01T01:46:35;14.20;99.90
10294;DHT22;5192;50.328;7.610;2022-09-01T01:49:03;14.20;99.90
10294;DHT22;5192;50.328;7.610;2022-09-01T01:51:29;14.00;99.90
10294;DHT22;5192;50.328;7.610;2022-09-01T01:53:59;14.00;99.90
10294;DHT22;5192;50.328;7.610;2022-09-01T01:56:30;13.90;99.90
10294;DHT22;5192;50.328;7.610;2022-09-01T01:58:59;13.90;99.90
10294;DHT22;5192;50.328;7.610;2022-09-01T02:01:29;13.90;99.90
10294;DHT22;5192;50.328;7.610;2022-09-01T02:03:58;13.80;99.90
10294;DHT22;5192;50.328;7.610;2022-09-01T02:06:25;13.70;99.90
10294;DHT22;5192;50.328;7.610;2022-09-01T02:08:53;13.70;99.90
10294;DHT22;5192;50.328;7.610;2022-09-01T02:11:25;13.60;99.90
10294;DHT22;5192;50.328;7.610;2022-09-01T02:13:52;13.60;99.90
10294;DHT22;5192;50.328;7.610;2022-09-01T02:16:26;13.50;99.90
10294;DHT22;5192;50.328;7.610;2022-09-01T02:18:54;13.50;99.90
10294;DHT22;5192;50.328;7.610;2022-09-01T02:21:22;13.50;99.90
10294;DHT22;5192;50.328;7.610;2022-09-01T02:23:58;13.40;99.90
10294;DHT22;5192;50.328;7.610;2022-09-01T02:26:32;13.40;99.90
10294;DHT22;5192;50.328;7.610;2022-09-01T02:29:03;13.40;99.90
10294;DHT22;5192;50.328;7.610;2022-09-01T02:31:33;13.30;99.90
10294;DHT22;5192;50.328;7.610;2022-09-01T02:34:08;13.30;99.90
10294;DHT22;5192;50.328;7.610;2022-09-01T02:36:42;13.20;99.90
10294;DHT22;5192;50.328;7.610;2022-09-01T02:39:18;13.20;99.90
10294;DHT22;5192;50.328;7.610;2022-09-01T02:41:49;13.20;99.90
10294;DHT22;5192;50.328;7.610;2022-09-01T02:44:16;13.20;99.90
10294;DHT22;5192;50.328;7.610;2022-09-01T02:46:48;13.20;99.90
10294;DHT22;5192;50.328;7.610;2022-09-01T02:49:21;13.10;99.90
10294;DHT22;5192;50.328;7.610;2022-09-01T02:51:51;13.10;99.90
10294;DHT22;5192;50.328;7.610;2022-09-01T02:54:29;13.00;99.90
10294;DHT22;5192;50.328;7.610;2022-09-01T02:56:59;13.00;99.90
10294;DHT22;5192;50.328;7.610;2022-09-01T02:59:27;12.90;99.90
10294;DHT22;5192;50.328;7.610;2022-09-01T03:01:55;12.90;99.90
10294;DHT22;5192;50.328;7.610;2022-09-01T03:04:23;12.90;99.90
10294;DHT22;5192;50.328;7.610;2022-09-01T03:06:51;12.80;99.90
10294;DHT22;5192;50.328;7.610;2022-09-01T03:09:20;12.80;99.90
10294;DHT22;5192;50.328;7.610;2022-09-01T03:11:50;12.80;99.90
10294;DHT22;5192;50.328;7.610;2022-09-01T03:14:17;12.80;99.90
10294;DHT22;5192;50.328;7.610;2022-09-01T03:16:44;12.70;99.90
10294;DHT22;5192;50.328;7.610;2022-09-01T03:19:11;12.70;99.90
10294;DHT22;5192;50.328;7.610;2022-09-01T03:21:40;12.70;99.90
10294;DHT22;5192;50.328;7.610;2022-09-01T03:24:11;12.70;99.90
10294;DHT22;5192;50.328;7.610;2022-09-01T03:26:44;12.70;99.90
10294;DHT22;5192;50.328;7.610;2022-09-01T03:29:12;12.70;99.90
10294;DHT22;5192;50.328;7.610;2022-09-01T03:31:41;12.60;99.90
10294;DHT22;5192;50.328;7.610;2022-09-01T03:34:08;12.60;99.90
10294;DHT22;5192;50.328;7.610;2022-09-01T03:36:37;12.50;99.90
10294;DHT22;5192;50.328;7.610;2022-09-01T03:39:05;12.50;99.90
10294;DHT22;5192;50.328;7.610;2022-09-01T03:41:34;12.50;99.90
10294;DHT22;5192;50.328;7.610;2022-09-01T03:44:02;12.50;99.90
10294;DHT22;5192;50.328;7.610;2022-09-01T03:46:30;12.50;99.90
10294;DHT22;5192;50.328;7.610;2022-09-01T03:48:58;12.50;99.90
10294;DHT22;5192;50.328;7.610;2022-09-01T03:51:26;12.40;99.90
10294;DHT22;5192;50.328;7.610;2022-09-01T03:53:57;12.40;99.90
10294;DHT22;5192;50.328;7.610;2022-09-01T03:56:29;12.30;99.90
10294;DHT22;5192;50.328;7.610;2022-09-01T03:58:58;12.30;99.90
10294;DHT22;5192;50.328;7.610;2022-09-01T04:01:25;12.30;99.90
10294;DHT22;5192;50.328;7.610;2022-09-01T04:03:52;12.30;99.90
10294;DHT22;5192;50.328;7.610;2022-09-01T04:06:19;12.30;99.90
10294;DHT22;5192;50.328;7.610;2022-09-01T04:08:51;12.20;99.90
10294;DHT22;5192;50.328;7.610;2022-09-01T04:11:28;12.20;99.90
10294;DHT22;5192;50.328;7.610;2022-09-01T04:13:57;12.20;99.90
10294;DHT22;5192;50.328;7.610;2022-09-01T04:16:26;12.20;99.90
10294;DHT22;5192;50.328;7.610;2022-09-01T04:19:19;12.20;99.90
10294;DHT22;5192;50.328;7.610;2022-09-01T04:21:52;12.10;99.90
10294;DHT22;5192;50.328;7.610;2022-09-01T04:24:21;12.10;99.90
10294;DHT22;5192;50.328;7.610;2022-09-01T04:26:49;12.10;99.90
10294;DHT22;5192;50.328;7.610;2022-09-01T04:29:17;12.10;99.90
10294;DHT22;5192;50.328;7.610;2022-09-01T04:31:45;12.10;99.90
10294;DHT22;5192;50.328;7.610;2022-09-01T04:34:15;12.10;99.90
10294;DHT22;5192;50.328;7.610;2022-09-01T04:36:44;12.10;99.90
10294;DHT22;5192;50.328;7.610;2022-09-01T04:39:11;12.00;99.90
10294;DHT22;5192;50.328;7.610;2022-09-01T04:41:43;12.00;99.90
10294;DHT22;5192;50.328;7.610;2022-09-01T04:44:18;12.00;99.90
10294;DHT22;5192;50.328;7.610;2022-09-01T04:46:46;12.00;99.90
10294;DHT22;5192;50.328;7.610;2022-09-01T04:49:18;12.00;99.90
10294;DHT22;5192;50.328;7.610;2022-09-01T04:51:49;12.00;99.90
10294;DHT22;5192;50.328;7.610;2022-09-01T04:54:20;12.00;99.90
10294;DHT22;5192;50.328;7.610;2022-09-01T04:56:49;12.00;99.90
10294;DHT22;5192;50.328;7.610;2022-09-01T04:59:20;11.90;99.90
10294;DHT22;5192;50.328;7.610;2022-09-01T05:01:46;12.00;99.90
10294;DHT22;5192;50.328;7.610;2022-09-01T05:04:21;12.00;99.90
10294;DHT22;5192;50.328;7.610;2022-09-01T05:06:52;11.90;99.90
10294;DHT22;5192;50.328;7.610;2022-09-01T05:09:23;11.90;99.90
10294;DHT22;5192;50.328;7.610;2022-09-01T05:11:49;11.90;99.90
10294;DHT22;5192;50.328;7.610;2022-09-01T05:14:17;11.90;99.90
10294;DHT22;5192;50.328;7.610;2022-09-01T05:16:46;12.00;99.90
10294;DHT22;5192;50.328;7.610;2022-09-01T05:19:13;12.10;99.90
10294;DHT22;5192;50.328;7.610;2022-09-01T05:21:42;12.00;99.90
10294;DHT22;5192;50.328;7.610;2022-09-01T05:24:13;12.20;99.90
10294;DHT22;5192;50.328;7.610;2022-09-01T05:26:42;12.40;99.90
10294;DHT22;5192;50.328;7.610;2022-09-01T05:29:10;12.50;99.90
10294;DHT22;5192;50.328;7.610;2022-09-01T05:31:41;12.60;99.90
10294;DHT22;5192;50.328;7.610;2022-09-01T05:34:09;12.60;99.90
10294;DHT22;5192;50.328;7.610;2022-09-01T05:36:37;12.70;99.90
10294;DHT22;5192;50.328;7.610;2022-09-01T05:39:06;12.80;99.90
10294;DHT22;5192;50.328;7.610;2022-09-01T05:41:34;12.80;99.90
10294;DHT22;5192;50.328;7.610;2022-09-01T05:44:05;12.80;99.90
10294;DHT22;5192;50.328;7.610;2022-09-01T05:46:34;12.80;99.90
10294;DHT22;5192;50.328;7.610;2022-09-01T05:49:01;12.90;99.90
10294;DHT22;5192;50.328;7.610;2022-09-01T05:51:29;13.00;99.90
10294;DHT22;5192;50.328;7.610;2022-09-01T05:54:02;13.00;99.90
10294;DHT22;5192;50.328;7.610;2022-09-01T05:56:30;13.10;99.90
10294;DHT22;5192;50.328;7.610;2022-09-01T05:58:59;13.10;99.90
10294;DHT22;5192;50.328;7.610;2022-09-01T06:01:27;13.20;99.90
10294;DHT22;5192;50.328;7.610;2022-09-01T06:03:59;13.20;99.90
10294;DHT22;5192;50.328;7.610;2022-09-01T06:09:06;13.10;99.90
10294;DHT22;5192;50.328;7.610;2022-09-01T06:11:33;13.10;99.90
10294;DHT22;5192;50.328;7.610;2022-09-01T06:14:00;13.20;99.90
10294;DHT22;5192;50.328;7.610;2022-09-01T06:16:27;13.30;99.90
10294;DHT22;5192;50.328;7.610;2022-09-01T06:18:55;13.30;99.90
10294;DHT22;5192;50.328;7.610;2022-09-01T06:21:22;13.40;99.90
10294;DHT22;5192;50.328;7.610;2022-09-01T06:23:51;13.40;99.90
10294;DHT22;5192;50.328;7.610;2022-09-01T06:26:31;13.50;99.90
10294;DHT22;5192;50.328;7.610;2022-09-01T06:29:02;13.50;99.90
10294;DHT22;5192;50.328;7.610;2022-09-01T06:31:32;13.60;99.90
10294;DHT22;5192;50.328;7.610;2022-09-01T06:34:01;13.70;99.90
10294;DHT22;5192;50.328;7.610;2022-09-01T06:36:29;13.80;99.90
10294;DHT22;5192;50.328;7.610;2022-09-01T06:38:59;13.80;99.90
10294;DHT22;5192;50.328;7.610;2022-09-01T06:41:28;13.90;99.90
10294;DHT22;5192;50.328;7.610;2022-09-01T06:43:56;14.00;99.90
10294;DHT22;5192;50.328;7.610;2022-09-01T06:46:23;14.10;99.90
10294;DHT22;5192;50.328;7.610;2022-09-01T06:48:54;14.30;99.90
10294;DHT22;5192;50.328;7.610;2022-09-01T06:51:27;14.40;99.90
10294;DHT22;5192;50.328;7.610;2022-09-01T06:54:02;14.50;99.90
10294;DHT22;5192;50.328;7.610;2022-09-01T06:56:31;14.60;99.90
10294;DHT22;5192;50.328;7.610;2022-09-01T06:59:01;14.60;99.90
10294;DHT22;5192;50.328;7.610;2022-09-01T07:01:31;14.80;99.90
10294;DHT22;5192;50.328;7.610;2022-09-01T07:04:00;14.80;99.90
10294;DHT22;5192;50.328;7.610;2022-09-01T07:06:27;14.90;99.90
10294;DHT22;5192;50.328;7.610;2022-09-01T07:08:57;14.90;99.90
10294;DHT22;5192;50.328;7.610;2022-09-01T07:11:32;15.00;99.90
10294;DHT22;5192;50.328;7.610;2022-09-01T07:14:00;15.00;99.90
10294;DHT22;5192;50.328;7.610;2022-09-01T07:16:34;15.10;99.90
10294;DHT22;5192;50.328;7.610;2022-09-01T07:19:04;15.20;99.90
10294;DHT22;5192;50.328;7.610;2022-09-01T07:21:31;15.30;99.90
10294;DHT22;5192;50.328;7.610;2022-09-01T07:23:58;15.40;99.90
10294;DHT22;5192;50.328;7.610;2022-09-01T07:26:26;15.50;99.90
10294;DHT22;5192;50.328;7.610;2022-09-01T07:28:56;15.70;99.90
10294;DHT22;5192;50.328;7.610;2022-09-01T07:31:24;15.80;99.90
10294;DHT22;5192;50.328;7.610;2022-09-01T07:33:52;16.00;99.90
10294;DHT22;5192;50.328;7.610;2022-09-01T07:36:20;16.20;99.90
10294;DHT22;5192;50.328;7.610;2022-09-01T07:38:47;16.30;99.90
10294;DHT22;5192;50.328;7.610;2022-09-01T07:41:22;16.50;99.90
10294;DHT22;5192;50.328;7.610;2022-09-01T07:43:51;16.80;99.90
10294;DHT22;5192;50.328;7.610;2022-09-01T07:46:18;16.90;99.90
10294;DHT22;5192;50.328;7.610;2022-09-01T07:48:45;17.10;99.90
10294;DHT22;5192;50.328;7.610;2022-09-01T07:51:16;17.10;99.90
10294;DHT22;5192;50.328;7.610;2022-09-01T07:53:47;17.20;99.90
10294;DHT22;5192;50.328;7.610;2022-09-01T07:56:14;17.20;99.90
10294;DHT22;5192;50.328;7.610;2022-09-01T07:58:43;17.20;99.90
10294;DHT22;5192;50.328;7.610;2022-09-01T08:01:16;17.30;99.90
10294;DHT22;5192;50.328;7.610;2022-09-01T08:03:50;17.40;99.90
10294;DHT22;5192;50.328;7.610;2022-09-01T08:06:21;17.50;99.90
10294;DHT22;5192;50.328;7.610;2022-09-01T08:08:58;17.60;99.90
10294;DHT22;5192;50.328;7.610;2022-09-01T08:11:28;17.70;99.90
10294;DHT22;5192;50.328;7.610;2022-09-01T08:13:56;17.70;99.90
10294;DHT22;5192;50.328;7.610;2022-09-01T08:16:26;17.80;99.90
10294;DHT22;5192;50.328;7.610;2022-09-01T08:18:55;17.90;99.90
10294;DHT22;5192;50.328;7.610;2022-09-01T08:21:22;18.00;99.90
10294;DHT22;5192;50.328;7.610;2022-09-01T08:23:50;18.10;99.90
10294;DHT22;5192;50.328;7.610;2022-09-01T08:26:19;18.20;99.90
10294;DHT22;5192;50.328;7.610;2022-09-01T08:28:46;18.30;98.90
10294;DHT22;5192;50.328;7.610;2022-09-01T08:31:16;18.40;96.90
10294;DHT22;5192;50.328;7.610;2022-09-01T08:33:47;18.40;78.80
10294;DHT22;5192;50.328;7.610;2022-09-01T08:36:15;18.50;74.60
10294;DHT22;5192;50.328;7.610;2022-09-01T08:38:42;18.70;61.40
10294;DHT22;5192;50.328;7.610;2022-09-01T08:41:16;18.80;53.60
10294;DHT22;5192;50.328;7.610;2022-09-01T08:44:07;18.90;41.60
10294;DHT22;5192;50.328;7.610;2022-09-01T08:46:46;19.10;30.20
10294;DHT22;5192;50.328;7.610;2022-09-01T08:49:17;19.20;26.70
10294;DHT22;5192;50.328;7.610;2022-09-01T08:54:50;19.30;7.60
10294;DHT22;5192;50.328;7.610;2022-09-01T08:57:45;19.30;4.50
10294;DHT22;5192;50.328;7.610;2022-09-01T09:00:14;19.30;4.00
10294;DHT22;5192;50.328;7.610;2022-09-01T09:10:57;19.50;1.00
10294;DHT22;5192;50.328;7.610;2022-09-01T09:16:36;19.60;1.00
10294;DHT22;5192;50.328;7.610;2022-09-01T09:19:18;19.70;1.00
10294;DHT22;5192;50.328;7.610;2022-09-01T09:21:49;19.70;1.00
10294;DHT22;5192;50.328;7.610;2022-09-01T09:24:28;19.70;1.00
10294;DHT22;5192;50.328;7.610;2022-09-01T09:27:35;19.80;1.00
10294;DHT22;5192;50.328;7.610;2022-09-01T09:30:24;19.90;1.00
10294;DHT22;5192;50.328;7.610;2022-09-01T09:33:05;20.00;1.00
10294;DHT22;5192;50.328;7.610;2022-09-01T09:35:51;20.20;1.00
10294;DHT22;5192;50.328;7.610;2022-09-01T09:38:24;20.40;1.00
10294;DHT22;5192;50.328;7.610;2022-09-01T09:41:17;20.70;1.00
10294;DHT22;5192;50.328;7.610;2022-09-01T09:43:58;20.80;1.00
10294;DHT22;5192;50.328;7.610;2022-09-01T09:46:44;20.90;1.00
10294;DHT22;5192;50.328;7.610;2022-09-01T09:49:30;21.20;1.00
10294;DHT22;5192;50.328;7.610;2022-09-01T09:52:13;21.30;1.00
10294;DHT22;5192;50.328;7.610;2022-09-01T09:55:03;21.30;1.00
10294;DHT22;5192;50.328;7.610;2022-09-01T09:57:30;21.40;1.00
10294;DHT22;5192;50.328;7.610;2022-09-01T10:03:30;21.40;1.00
10294;DHT22;5192;50.328;7.610;2022-09-01T10:05:48;21.50;1.00
10294;DHT22;5192;50.328;7.610;2022-09-01T10:14:37;21.60;1.00
10294;DHT22;5192;50.328;7.610;2022-09-01T10:17:16;21.70;1.00
10294;DHT22;5192;50.328;7.610;2022-09-01T10:19:58;21.90;1.00
10294;DHT22;5192;50.328;7.610;2022-09-01T10:22:31;22.10;1.00
10294;DHT22;5192;50.328;7.610;2022-09-01T10:25:00;22.30;1.00
10294;DHT22;5192;50.328;7.610;2022-09-01T10:27:32;22.30;1.00
10294;DHT22;5192;50.328;7.610;2022-09-01T10:30:18;22.30;1.00
10294;DHT22;5192;50.328;7.610;2022-09-01T10:33:03;22.30;1.00
10294;DHT22;5192;50.328;7.610;2022-09-01T10:35:32;22.50;1.00
10294;DHT22;5192;50.328;7.610;2022-09-01T10:38:00;22.60;1.00
10294;DHT22;5192;50.328;7.610;2022-09-01T10:45:54;22.80;1.00
10294;DHT22;5192;50.328;7.610;2022-09-01T10:50:46;22.70;1.00
10294;DHT22;5192;50.328;7.610;2022-09-01T10:58:59;23.10;1.00
10294;DHT22;5192;50.328;7.610;2022-09-01T11:05:08;23.10;1.00
10294;DHT22;5192;50.328;7.610;2022-09-01T11:07:30;23.30;1.00
10294;DHT22;5192;50.328;7.610;2022-09-01T11:18:32;23.80;1.00
10294;DHT22;5192;50.328;7.610;2022-09-01T11:21:22;23.90;1.00
10294;DHT22;5192;50.328;7.610;2022-09-01T11:23:49;23.80;1.00
10294;DHT22;5192;50.328;7.610;2022-09-01T11:29:00;24.20;1.00
10294;DHT22;5192;50.328;7.610;2022-09-01T11:31:37;24.30;1.00
10294;DHT22;5192;50.328;7.610;2022-09-01T11:34:18;24.40;1.00
10294;DHT22;5192;50.328;7.610;2022-09-01T11:36:55;24.60;1.00
10294;DHT22;5192;50.328;7.610;2022-09-01T11:39:30;24.90;1.00
10294;DHT22;5192;50.328;7.610;2022-09-01T11:48:05;24.80;1.00
10294;DHT22;5192;50.328;7.610;2022-09-01T11:50:38;25.00;1.00
10294;DHT22;5192;50.328;7.610;2022-09-01T11:53:29;25.20;1.00
10294;DHT22;5192;50.328;7.610;2022-09-01T11:55:56;25.30;1.00
10294;DHT22;5192;50.328;7.610;2022-09-01T11:58:36;25.40;1.00
10294;DHT22;5192;50.328;7.610;2022-09-01T12:01:33;25.30;1.00
10294;DHT22;5192;50.328;7.610;2022-09-01T12:04:31;24.90;1.00
10294;DHT22;5192;50.328;7.610;2022-09-01T12:07:03;24.70;1.00
10294;DHT22;5192;50.328;7.610;2022-09-01T12:09:45;24.80;1.00
10294;DHT22;5192;50.328;7.610;2022-09-01T12:12:33;24.90;1.00
10294;DHT22;5192;50.328;7.610;2022-09-01T12:15:24;24.90;1.00
10294;DHT22;5192;50.328;7.610;2022-09-01T12:17:51;24.80;1.00
10294;DHT22;5192;50.328;7.610;2022-09-01T12:20:30;24.80;1.00
10294;DHT22;5192;50.328;7.610;2022-09-01T12:23:01;25.10;1.00
10294;DHT22;5192;50.328;7.610;2022-09-01T12:25:31;25.20;1.00
10294;DHT22;5192;50.328;7.610;2022-09-01T12:28:04;25.20;1.00
10294;DHT22;5192;50.328;7.610;2022-09-01T12:30:32;25.10;1.00
10294;DHT22;5192;50.328;7.610;2022-09-01T12:33:07;24.80;1.00
10294;DHT22;5192;50.328;7.610;2022-09-01T12:35:34;24.90;1.00
10294;DHT22;5192;50.328;7.610;2022-09-01T12:40:49;25.30;1.00
10294;DHT22;5192;50.328;7.610;2022-09-01T12:43:40;25.40;1.00
10294;DHT22;5192;50.328;7.610;2022-09-01T12:46:09;25.30;1.00
10294;DHT22;5192;50.328;7.610;2022-09-01T12:48:39;25.10;1.00
10294;DHT22;5192;50.328;7.610;2022-09-01T12:51:30;24.70;1.00
10294;DHT22;5192;50.328;7.610;2022-09-01T12:53:59;24.50;1.00
10294;DHT22;5192;50.328;7.610;2022-09-01T12:56:30;24.50;1.00
10294;DHT22;5192;50.328;7.610;2022-09-01T12:59:25;24.60;1.00
10294;DHT22;5192;50.328;7.610;2022-09-01T13:01:52;24.70;1.00
10294;DHT22;5192;50.328;7.610;2022-09-01T13:04:37;24.80;1.00
10294;DHT22;5192;50.328;7.610;2022-09-01T13:07:07;24.90;1.00
10294;DHT22;5192;50.328;7.610;2022-09-01T13:09:34;24.80;1.00
10294;DHT22;5192;50.328;7.610;2022-09-01T13:12:30;24.60;1.00
10294;DHT22;5192;50.328;7.610;2022-09-01T13:14:57;24.60;1.00
10294;DHT22;5192;50.328;7.610;2022-09-01T13:17:25;24.70;1.00
10294;DHT22;5192;50.328;7.610;2022-09-01T13:19:53;25.00;1.00
10294;DHT22;5192;50.328;7.610;2022-09-01T13:22:20;25.30;1.00
10294;DHT22;5192;50.328;7.610;2022-09-01T13:24:47;25.30;1.00
10294;DHT22;5192;50.328;7.610;2022-09-01T13:27:13;25.40;1.00
10294;DHT22;5192;50.328;7.610;2022-09-01T13:29:41;25.20;1.00
10294;DHT22;5192;50.328;7.610;2022-09-01T13:32:07;25.40;1.00
10294;DHT22;5192;50.328;7.610;2022-09-01T13:34:34;25.90;1.00
10294;DHT22;5192;50.328;7.610;2022-09-01T13:37:02;26.50;1.00
10294;DHT22;5192;50.328;7.610;2022-09-01T13:39:29;27.10;1.00
10294;DHT22;5192;50.328;7.610;2022-09-01T13:41:56;27.50;1.00
10294;DHT22;5192;50.328;7.610;2022-09-01T13:44:24;27.40;1.00
10294;DHT22;5192;50.328;7.610;2022-09-01T13:46:51;27.40;1.00
10294;DHT22;5192;50.328;7.610;2022-09-01T13:49:18;27.20;1.00
10294;DHT22;5192;50.328;7.610;2022-09-01T13:51:43;27.10;1.00
10294;DHT22;5192;50.328;7.610;2022-09-01T13:54:18;26.80;1.00
10294;DHT22;5192;50.328;7.610;2022-09-01T13:56:45;26.40;1.00
10294;DHT22;5192;50.328;7.610;2022-09-01T13:59:11;26.30;1.00
10294;DHT22;5192;50.328;7.610;2022-09-01T14:01:38;26.00;1.00
10294;DHT22;5192;50.328;7.610;2022-09-01T14:04:08;25.90;1.00
10294;DHT22;5192;50.328;7.610;2022-09-01T14:06:43;25.80;1.00
10294;DHT22;5192;50.328;7.610;2022-09-01T14:09:14;25.90;1.00
10294;DHT22;5192;50.328;7.610;2022-09-01T14:11:41;25.60;1.00
10294;DHT22;5192;50.328;7.610;2022-09-01T14:14:09;25.70;1.00
10294;DHT22;5192;50.328;7.610;2022-09-01T14:16:36;25.80;1.00
10294;DHT22;5192;50.328;7.610;2022-09-01T14:19:04;26.00;1.00
10294;DHT22;5192;50.328;7.610;2022-09-01T14:21:31;25.90;1.00
10294;DHT22;5192;50.328;7.610;2022-09-01T14:23:56;26.20;1.00
10294;DHT22;5192;50.328;7.610;2022-09-01T14:26:24;26.20;1.00
10294;DHT22;5192;50.328;7.610;2022-09-01T14:28:52;26.00;1.00
10294;DHT22;5192;50.328;7.610;2022-09-01T14:31:19;26.00;1.00
10294;DHT22;5192;50.328;7.610;2022-09-01T14:33:47;25.90;1.00
10294;DHT22;5192;50.328;7.610;2022-09-01T14:36:19;25.80;1.00
10294;DHT22;5192;50.328;7.610;2022-09-01T14:38:46;25.50;1.00
10294;DHT22;5192;50.328;7.610;2022-09-01T14:41:16;25.60;1.00
10294;DHT22;5192;50.328;7.610;2022-09-01T14:43:46;26.00;1.00
10294;DHT22;5192;50.328;7.610;2022-09-01T14:46:14;26.60;1.00
10294;DHT22;5192;50.328;7.610;2022-09-01T14:48:41;27.40;1.00
10294;DHT22;5192;50.328;7.610;2022-09-01T14:51:08;26.90;1.00
10294;DHT22;5192;50.328;7.610;2022-09-01T14:53:35;27.50;1.00
10294;DHT22;5192;50.328;7.610;2022-09-01T14:56:02;28.00;1.00
10294;DHT22;5192;50.328;7.610;2022-09-01T14:58:29;28.60;1.00
10294;DHT22;5192;50.328;7.610;2022-09-01T15:00:55;28.90;1.00
10294;DHT22;5192;50.328;7.610;2022-09-01T15:03:23;29.30;1.00
10294;DHT22;5192;50.328;7.610;2022-09-01T15:05:52;29.00;1.00
10294;DHT22;5192;50.328;7.610;2022-09-01T15:08:19;29.00;1.00
10294;DHT22;5192;50.328;7.610;2022-09-01T15:10:46;29.00;1.00
10294;DHT22;5192;50.328;7.610;2022-09-01T15:13:13;28.70;1.00
10294;DHT22;5192;50.328;7.610;2022-09-01T15:15:39;28.50;1.00
10294;DHT22;5192;50.328;7.610;2022-09-01T15:21:59;28.00;1.00
10294;DHT22;5192;50.328;7.610;2022-09-01T15:24:26;27.60;1.00
10294;DHT22;5192;50.328;7.610;2022-09-01T15:26:52;27.80;1.00
10294;DHT22;5192;50.328;7.610;2022-09-01T15:29:19;27.80;1.00
10294;DHT22;5192;50.328;7.610;2022-09-01T15:31:45;28.00;1.00
10294;DHT22;5192;50.328;7.610;2022-09-01T15:34:12;28.00;1.00
10294;DHT22;5192;50.328;7.610;2022-09-01T15:36:39;27.80;1.00
10294;DHT22;5192;50.328;7.610;2022-09-01T15:39:08;27.70;1.00
10294;DHT22;5192;50.328;7.610;2022-09-01T15:41:36;27.50;1.00
10294;DHT22;5192;50.328;7.610;2022-09-01T15:44:07;27.30;1.00
10294;DHT22;5192;50.328;7.610;2022-09-01T15:46:36;27.20;1.00
10294;DHT22;5192;50.328;7.610;2022-09-01T15:49:07;27.00;1.00
10294;DHT22;5192;50.328;7.610;2022-09-01T15:51:48;26.90;1.00
10294;DHT22;5192;50.328;7.610;2022-09-01T15:54:18;26.50;1.00
10294;DHT22;5192;50.328;7.610;2022-09-01T15:56:46;26.10;1.00
10294;DHT22;5192;50.328;7.610;2022-09-01T15:59:13;26.10;1.00
10294;DHT22;5192;50.328;7.610;2022-09-01T16:01:42;26.20;1.00
10294;DHT22;5192;50.328;7.610;2022-09-01T16:04:11;26.20;1.00
10294;DHT22;5192;50.328;7.610;2022-09-01T16:06:39;26.20;1.00
10294;DHT22;5192;50.328;7.610;2022-09-01T16:09:10;26.30;1.00
10294;DHT22;5192;50.328;7.610;2022-09-01T16:11:38;26.30;1.00
10294;DHT22;5192;50.328;7.610;2022-09-01T16:14:05;26.40;1.00
10294;DHT22;5192;50.328;7.610;2022-09-01T16:22:32;26.10;1.00
10294;DHT22;5192;50.328;7.610;2022-09-01T16:25:05;26.00;1.00
10294;DHT22;5192;50.328;7.610;2022-09-01T16:27:41;26.00;1.00
10294;DHT22;5192;50.328;7.610;2022-09-01T16:30:13;26.00;1.00
10294;DHT22;5192;50.328;7.610;2022-09-01T16:32:47;26.00;1.00
10294;DHT22;5192;50.328;7.610;2022-09-01T16:35:14;25.90;1.00
10294;DHT22;5192;50.328;7.610;2022-09-01T16:40:49;25.70;1.00
10294;DHT22;5192;50.328;7.610;2022-09-01T16:46:30;25.40;1.00
10294;DHT22;5192;50.328;7.610;2022-09-01T16:52:02;24.80;1.00
10294;DHT22;5192;50.328;7.610;2022-09-01T16:55:27;24.80;1.00
10294;DHT22;5192;50.328;7.610;2022-09-01T17:00:47;24.50;1.00
10294;DHT22;5192;50.328;7.610;2022-09-01T17:09:44;24.00;1.00
10294;DHT22;5192;50.328;7.610;2022-09-01T17:12:24;23.80;1.00
10294;DHT22;5192;50.328;7.610;2022-09-01T17:15:02;23.50;1.00
10294;DHT22;5192;50.328;7.610;2022-09-01T17:17:50;23.20;1.00
10294;DHT22;5192;50.328;7.610;2022-09-01T17:20:31;23.00;1.00
10294;DHT22;5192;50.328;7.610;2022-09-01T17:23:01;22.80;1.00
10294;DHT22;5192;50.328;7.610;2022-09-01T17:25:47;22.70;1.00
10294;DHT22;5192;50.328;7.610;2022-09-01T17:28:24;22.50;1.00
10294;DHT22;5192;50.328;7.610;2022-09-01T17:37:14;21.70;1.00
10294;DHT22;5192;50.328;7.610;2022-09-01T17:39:46;21.60;1.00
10294;DHT22;5192;50.328;7.610;2022-09-01T17:48:19;21.00;1.00
10294;DHT22;5192;50.328;7.610;2022-09-01T17:51:05;20.90;1.00
10294;DHT22;5192;50.328;7.610;2022-09-01T17:56:50;20.50;1.00
10294;DHT22;5192;50.328;7.610;2022-09-01T17:59:46;20.40;1.00
10294;DHT22;5192;50.328;7.610;2022-09-01T18:05:20;20.00;1.00
10294;DHT22;5192;50.328;7.610;2022-09-01T18:10:48;19.80;1.00
10294;DHT22;5192;50.328;7.610;2022-09-01T18:13:20;19.70;1.00
10294;DHT22;5192;50.328;7.610;2022-09-01T18:15:50;19.60;1.00
10294;DHT22;5192;50.328;7.610;2022-09-01T18:18:43;19.50;1.00
10294;DHT22;5192;50.328;7.610;2022-09-01T18:21:38;19.30;1.00